sensor_id;sensor_type;location;lat;lon;timestamp;P1;durP1;ratioP1;P2;durP2;ratioP2
32748;SDS011;19119;52.474;13.710;2023-04-24T00:00:31;5.18;;;3.00;;
32748;SDS011;19119;52.474;13.710;2023-04-24T00:02:57;5.20;;;2.97;;
32748;SDS011;19119;52.474;13.710;2023-04-24T00:05:23;7.13;;;3.22;;
32748;SDS011;19119;52.474;13.710;2023-04-24T00:07:49;5.13;;;3.05;;
32748;SDS011;19119;52.474;13.710;2023-04-24T00:10:18;6.13;;;3.75;;
32748;SDS011;19119;52.474;13.710;2023-04-24T00:12:44;5.65;;;3.13;;
32748;SDS011;19119;52.474;13.710;2023-04-24T00:15:09;6.28;;;3.40;;
32748;SDS011;19119;52.474;13.710;2023-04-24T00:17:35;4.78;;;3.40;;
32748;SDS011;19119;52.474;13.710;2023-04-24T00:20:02;6.38;;;3.30;;
32748;SDS011;19119;52.474;13.710;2023-04-24T00:22:29;6.95;;;3.40;;
32748;SDS011;19119;52.474;13.710;2023-04-24T00:24:55;5.68;;;3.38;;
32748;SDS011;19119;52.474;13.710;2023-04-24T00:27:21;6.78;;;3.47;;
32748;SDS011;19119;52.474;13.710;2023-04-24T00:29:47;4.70;;;3.25;;
32748;SDS011;19119;52.474;13.710;2023-04-24T00:32:13;6.75;;;3.60;;
32748;SDS011;19119;52.474;13.710;2023-04-24T00:34:39;6.75;;;3.47;;
32748;SDS011;19119;52.474;13.710;2023-04-24T00:37:26;6.70;;;3.55;;
32748;SDS011;19119;52.474;13.710;2023-04-24T00:39:53;5.18;;;3.28;;
32748;SDS011;19119;52.474;13.710;2023-04-24T00:42:20;5.93;;;3.10;;
32748;SDS011;19119;52.474;13.710;2023-04-24T00:44:45;5.03;;;3.53;;
32748;SDS011;19119;52.474;13.710;2023-04-24T00:47:11;5.32;;;3.42;;
32748;SDS011;19119;52.474;13.710;2023-04-24T00:49:38;5.32;;;3.42;;
32748;SDS011;19119;52.474;13.710;2023-04-24T00:52:03;9.02;;;3.75;;
32748;SDS011;19119;52.474;13.710;2023-04-24T00:54:32;4.55;;;3.33;;
32748;SDS011;19119;52.474;13.710;2023-04-24T00:56:58;7.03;;;3.70;;
32748;SDS011;19119;52.474;13.710;2023-04-24T00:59:23;6.70;;;3.70;;
32748;SDS011;19119;52.474;13.710;2023-04-24T01:01:49;6.25;;;3.75;;
32748;SDS011;19119;52.474;13.710;2023-04-24T01:04:16;6.40;;;3.60;;
32748;SDS011;19119;52.474;13.710;2023-04-24T01:06:42;6.20;;;3.72;;
32748;SDS011;19119;52.474;13.710;2023-04-24T01:09:09;4.82;;;3.17;;
32748;SDS011;19119;52.474;13.710;2023-04-24T01:11:36;6.28;;;3.72;;
32748;SDS011;19119;52.474;13.710;2023-04-24T01:14:02;7.07;;;3.65;;
32748;SDS011;19119;52.474;13.710;2023-04-24T01:16:28;9.00;;;4.18;;
32748;SDS011;19119;52.474;13.710;2023-04-24T01:18:53;5.22;;;3.53;;
32748;SDS011;19119;52.474;13.710;2023-04-24T01:21:19;5.28;;;3.35;;
32748;SDS011;19119;52.474;13.710;2023-04-24T01:23:46;5.13;;;3.47;;
32748;SDS011;19119;52.474;13.710;2023-04-24T01:26:12;7.57;;;3.67;;
32748;SDS011;19119;52.474;13.710;2023-04-24T01:28:39;5.57;;;3.60;;
32748;SDS011;19119;52.474;13.710;2023-04-24T01:31:05;6.22;;;3.45;;
32748;SDS011;19119;52.474;13.710;2023-04-24T01:33:31;6.95;;;3.80;;
32748;SDS011;19119;52.474;13.710;2023-04-24T01:35:57;6.55;;;3.63;;
32748;SDS011;19119;52.474;13.710;2023-04-24T01:38:22;7.80;;;4.25;;
32748;SDS011;19119;52.474;13.710;2023-04-24T01:40:48;5.22;;;3.53;;
32748;SDS011;19119;52.474;13.710;2023-04-24T01:43:15;5.47;;;3.35;;
32748;SDS011;19119;52.474;13.710;2023-04-24T01:45:40;7.65;;;3.97;;
32748;SDS011;19119;52.474;13.710;2023-04-24T01:48:06;5.60;;;3.55;;
32748;SDS011;19119;52.474;13.710;2023-04-24T01:50:31;10.63;;;3.90;;
32748;SDS011;19119;52.474;13.710;2023-04-24T01:52:57;5.43;;;3.75;;
32748;SDS011;19119;52.474;13.710;2023-04-24T01:55:22;5.13;;;3.80;;
32748;SDS011;19119;52.474;13.710;2023-04-24T01:57:48;4.95;;;3.58;;
32748;SDS011;19119;52.474;13.710;2023-04-24T02:00:14;5.75;;;3.80;;
32748;SDS011;19119;52.474;13.710;2023-04-24T02:02:40;5.00;;;3.30;;
32748;SDS011;19119;52.474;13.710;2023-04-24T02:05:06;6.75;;;4.05;;
32748;SDS011;19119;52.474;13.710;2023-04-24T02:07:32;6.45;;;3.72;;
32748;SDS011;19119;52.474;13.710;2023-04-24T02:09:58;6.80;;;4.10;;
32748;SDS011;19119;52.474;13.710;2023-04-24T02:12:24;6.28;;;3.55;;
32748;SDS011;19119;52.474;13.710;2023-04-24T02:14:49;6.38;;;4.05;;
32748;SDS011;19119;52.474;13.710;2023-04-24T02:17:15;6.30;;;4.28;;
32748;SDS011;19119;52.474;13.710;2023-04-24T02:19:41;5.95;;;3.53;;
32748;SDS011;19119;52.474;13.710;2023-04-24T02:22:07;7.13;;;3.90;;
32748;SDS011;19119;52.474;13.710;2023-04-24T02:24:32;5.88;;;3.47;;
32748;SDS011;19119;52.474;13.710;2023-04-24T02:26:58;6.70;;;4.03;;
32748;SDS011;19119;52.474;13.710;2023-04-24T02:29:23;5.45;;;3.40;;
32748;SDS011;19119;52.474;13.710;2023-04-24T02:31:49;7.00;;;4.25;;
32748;SDS011;19119;52.474;13.710;2023-04-24T02:34:14;6.35;;;3.90;;
32748;SDS011;19119;52.474;13.710;2023-04-24T02:36:41;7.22;;;3.83;;
32748;SDS011;19119;52.474;13.710;2023-04-24T02:39:06;11.23;;;4.80;;
32748;SDS011;19119;52.474;13.710;2023-04-24T02:41:32;7.78;;;4.22;;
32748;SDS011;19119;52.474;13.710;2023-04-24T02:43:57;5.50;;;3.65;;
32748;SDS011;19119;52.474;13.710;2023-04-24T02:46:23;6.57;;;4.20;;
32748;SDS011;19119;52.474;13.710;2023-04-24T02:48:49;5.63;;;3.88;;
32748;SDS011;19119;52.474;13.710;2023-04-24T02:51:14;6.53;;;4.05;;
32748;SDS011;19119;52.474;13.710;2023-04-24T02:53:40;8.90;;;4.25;;
32748;SDS011;19119;52.474;13.710;2023-04-24T02:56:05;5.43;;;4.07;;
32748;SDS011;19119;52.474;13.710;2023-04-24T02:58:31;7.15;;;4.18;;
32748;SDS011;19119;52.474;13.710;2023-04-24T03:00:56;6.57;;;4.05;;
32748;SDS011;19119;52.474;13.710;2023-04-24T03:03:22;7.50;;;3.70;;
32748;SDS011;19119;52.474;13.710;2023-04-24T03:05:48;6.82;;;4.30;;
32748;SDS011;19119;52.474;13.710;2023-04-24T03:08:14;8.90;;;4.18;;
32748;SDS011;19119;52.474;13.710;2023-04-24T03:10:41;7.93;;;4.28;;
32748;SDS011;19119;52.474;13.710;2023-04-24T03:13:07;6.53;;;4.00;;
32748;SDS011;19119;52.474;13.710;2023-04-24T03:15:32;10.38;;;4.47;;
32748;SDS011;19119;52.474;13.710;2023-04-24T03:17:58;6.43;;;4.28;;
32748;SDS011;19119;52.474;13.710;2023-04-24T03:20:23;7.30;;;4.43;;
32748;SDS011;19119;52.474;13.710;2023-04-24T03:22:49;5.95;;;4.35;;
32748;SDS011;19119;52.474;13.710;2023-04-24T03:25:14;6.60;;;4.15;;
32748;SDS011;19119;52.474;13.710;2023-04-24T03:27:40;10.68;;;4.10;;
32748;SDS011;19119;52.474;13.710;2023-04-24T03:30:06;7.10;;;4.20;;
32748;SDS011;19119;52.474;13.710;2023-04-24T03:32:32;7.85;;;4.80;;
32748;SDS011;19119;52.474;13.710;2023-04-24T03:34:58;6.78;;;4.35;;
32748;SDS011;19119;52.474;13.710;2023-04-24T03:37:23;5.80;;;3.97;;
32748;SDS011;19119;52.474;13.710;2023-04-24T03:39:49;7.85;;;4.40;;
32748;SDS011;19119;52.474;13.710;2023-04-24T03:42:14;7.40;;;3.80;;
32748;SDS011;19119;52.474;13.710;2023-04-24T03:44:40;6.03;;;3.92;;
32748;SDS011;19119;52.474;13.710;2023-04-24T03:47:05;6.70;;;4.57;;
32748;SDS011;19119;52.474;13.710;2023-04-24T03:49:31;5.63;;;3.83;;
32748;SDS011;19119;52.474;13.710;2023-04-24T03:51:56;6.07;;;4.13;;
32748;SDS011;19119;52.474;13.710;2023-04-24T03:54:22;5.22;;;3.58;;
32748;SDS011;19119;52.474;13.710;2023-04-24T03:56:47;6.15;;;3.92;;
32748;SDS011;19119;52.474;13.710;2023-04-24T03:59:13;7.13;;;4.00;;
32748;SDS011;19119;52.474;13.710;2023-04-24T04:01:38;6.32;;;4.28;;
32748;SDS011;19119;52.474;13.710;2023-04-24T04:04:04;7.30;;;4.50;;
32748;SDS011;19119;52.474;13.710;2023-04-24T04:06:33;7.97;;;5.20;;
32748;SDS011;19119;52.474;13.710;2023-04-24T04:08:59;5.75;;;4.20;;
32748;SDS011;19119;52.474;13.710;2023-04-24T04:11:25;6.38;;;3.80;;
32748;SDS011;19119;52.474;13.710;2023-04-24T04:13:51;6.13;;;4.18;;
32748;SDS011;19119;52.474;13.710;2023-04-24T04:16:16;7.00;;;4.35;;
32748;SDS011;19119;52.474;13.710;2023-04-24T04:18:42;7.95;;;5.20;;
32748;SDS011;19119;52.474;13.710;2023-04-24T04:21:08;8.70;;;4.63;;
32748;SDS011;19119;52.474;13.710;2023-04-24T04:23:33;6.10;;;4.05;;
32748;SDS011;19119;52.474;13.710;2023-04-24T04:25:59;6.38;;;3.90;;
32748;SDS011;19119;52.474;13.710;2023-04-24T04:28:26;8.45;;;4.80;;
32748;SDS011;19119;52.474;13.710;2023-04-24T04:30:51;7.55;;;5.50;;
32748;SDS011;19119;52.474;13.710;2023-04-24T04:33:20;14.13;;;7.22;;
32748;SDS011;19119;52.474;13.710;2023-04-24T04:35:46;12.43;;;6.57;;
32748;SDS011;19119;52.474;13.710;2023-04-24T04:38:16;12.95;;;6.65;;
32748;SDS011;19119;52.474;13.710;2023-04-24T04:40:43;12.93;;;6.45;;
32748;SDS011;19119;52.474;13.710;2023-04-24T04:43:09;10.43;;;5.40;;
32748;SDS011;19119;52.474;13.710;2023-04-24T04:45:35;11.65;;;5.78;;
32748;SDS011;19119;52.474;13.710;2023-04-24T04:48:05;10.15;;;5.65;;
32748;SDS011;19119;52.474;13.710;2023-04-24T04:50:32;7.93;;;4.57;;
32748;SDS011;19119;52.474;13.710;2023-04-24T04:52:58;7.03;;;4.45;;
32748;SDS011;19119;52.474;13.710;2023-04-24T04:55:24;5.50;;;3.92;;
32748;SDS011;19119;52.474;13.710;2023-04-24T04:57:50;5.20;;;3.75;;
32748;SDS011;19119;52.474;13.710;2023-04-24T05:00:16;6.50;;;3.75;;
32748;SDS011;19119;52.474;13.710;2023-04-24T05:02:41;8.27;;;4.15;;
32748;SDS011;19119;52.474;13.710;2023-04-24T05:05:07;6.30;;;4.10;;
32748;SDS011;19119;52.474;13.710;2023-04-24T05:07:33;4.90;;;3.60;;
32748;SDS011;19119;52.474;13.710;2023-04-24T05:09:59;6.07;;;4.32;;
32748;SDS011;19119;52.474;13.710;2023-04-24T05:12:24;5.43;;;3.65;;
32748;SDS011;19119;52.474;13.710;2023-04-24T05:14:50;6.20;;;3.90;;
32748;SDS011;19119;52.474;13.710;2023-04-24T05:17:15;7.28;;;4.30;;
32748;SDS011;19119;52.474;13.710;2023-04-24T05:19:41;6.95;;;3.83;;
32748;SDS011;19119;52.474;13.710;2023-04-24T05:22:07;5.68;;;3.53;;
32748;SDS011;19119;52.474;13.710;2023-04-24T05:24:34;6.57;;;4.38;;
32748;SDS011;19119;52.474;13.710;2023-04-24T05:27:01;7.70;;;4.75;;
32748;SDS011;19119;52.474;13.710;2023-04-24T05:29:27;4.72;;;3.70;;
32748;SDS011;19119;52.474;13.710;2023-04-24T05:31:55;5.32;;;3.83;;
32748;SDS011;19119;52.474;13.710;2023-04-24T05:34:21;6.47;;;3.58;;
32748;SDS011;19119;52.474;13.710;2023-04-24T05:36:47;5.53;;;3.85;;
32748;SDS011;19119;52.474;13.710;2023-04-24T05:39:12;4.13;;;3.10;;
32748;SDS011;19119;52.474;13.710;2023-04-24T05:41:38;6.38;;;3.40;;
32748;SDS011;19119;52.474;13.710;2023-04-24T05:44:04;5.07;;;3.25;;
32748;SDS011;19119;52.474;13.710;2023-04-24T05:46:29;8.43;;;2.95;;
32748;SDS011;19119;52.474;13.710;2023-04-24T05:48:55;3.90;;;3.05;;
32748;SDS011;19119;52.474;13.710;2023-04-24T05:51:20;4.85;;;2.50;;
32748;SDS011;19119;52.474;13.710;2023-04-24T05:53:46;5.53;;;2.80;;
32748;SDS011;19119;52.474;13.710;2023-04-24T05:56:11;5.03;;;2.60;;
32748;SDS011;19119;52.474;13.710;2023-04-24T05:58:36;4.78;;;2.25;;
32748;SDS011;19119;52.474;13.710;2023-04-24T06:01:02;5.03;;;2.35;;
32748;SDS011;19119;52.474;13.710;2023-04-24T06:03:28;3.15;;;2.33;;
32748;SDS011;19119;52.474;13.710;2023-04-24T06:05:54;3.25;;;1.80;;
32748;SDS011;19119;52.474;13.710;2023-04-24T06:08:19;3.53;;;2.20;;
32748;SDS011;19119;52.474;13.710;2023-04-24T06:10:45;2.38;;;1.73;;
32748;SDS011;19119;52.474;13.710;2023-04-24T06:13:10;3.90;;;1.92;;
32748;SDS011;19119;52.474;13.710;2023-04-24T06:15:37;3.53;;;1.70;;
32748;SDS011;19119;52.474;13.710;2023-04-24T06:18:03;2.78;;;1.63;;
32748;SDS011;19119;52.474;13.710;2023-04-24T06:20:28;2.08;;;1.42;;
32748;SDS011;19119;52.474;13.710;2023-04-24T06:22:54;3.03;;;1.70;;
32748;SDS011;19119;52.474;13.710;2023-04-24T06:25:19;2.92;;;1.50;;
32748;SDS011;19119;52.474;13.710;2023-04-24T06:27:45;3.97;;;1.48;;
32748;SDS011;19119;52.474;13.710;2023-04-24T06:30:11;3.55;;;1.42;;
32748;SDS011;19119;52.474;13.710;2023-04-24T06:32:37;3.17;;;1.88;;
32748;SDS011;19119;52.474;13.710;2023-04-24T06:35:02;1.80;;;1.30;;
32748;SDS011;19119;52.474;13.710;2023-04-24T06:37:29;2.78;;;1.52;;
32748;SDS011;19119;52.474;13.710;2023-04-24T06:39:54;3.13;;;1.83;;
32748;SDS011;19119;52.474;13.710;2023-04-24T06:42:20;3.58;;;1.70;;
32748;SDS011;19119;52.474;13.710;2023-04-24T06:44:49;1.70;;;1.30;;
32748;SDS011;19119;52.474;13.710;2023-04-24T06:47:15;2.72;;;1.63;;
32748;SDS011;19119;52.474;13.710;2023-04-24T06:49:41;4.80;;;1.48;;
32748;SDS011;19119;52.474;13.710;2023-04-24T06:52:07;2.30;;;1.13;;
32748;SDS011;19119;52.474;13.710;2023-04-24T06:54:33;5.55;;;1.27;;
32748;SDS011;19119;52.474;13.710;2023-04-24T06:57:00;2.95;;;1.10;;
32748;SDS011;19119;52.474;13.710;2023-04-24T06:59:26;2.50;;;1.10;;
32748;SDS011;19119;52.474;13.710;2023-04-24T07:01:51;2.17;;;1.17;;
32748;SDS011;19119;52.474;13.710;2023-04-24T07:04:17;3.55;;;1.58;;
32748;SDS011;19119;52.474;13.710;2023-04-24T07:06:46;4.90;;;1.50;;
32748;SDS011;19119;52.474;13.710;2023-04-24T07:09:12;8.40;;;1.33;;
32748;SDS011;19119;52.474;13.710;2023-04-24T07:11:44;2.72;;;1.17;;
32748;SDS011;19119;52.474;13.710;2023-04-24T07:14:10;4.03;;;1.05;;
32748;SDS011;19119;52.474;13.710;2023-04-24T07:16:35;2.55;;;1.10;;
32748;SDS011;19119;52.474;13.710;2023-04-24T07:19:01;1.45;;;0.88;;
32748;SDS011;19119;52.474;13.710;2023-04-24T07:21:26;3.38;;;1.10;;
32748;SDS011;19119;52.474;13.710;2023-04-24T07:23:52;2.28;;;0.90;;
32748;SDS011;19119;52.474;13.710;2023-04-24T07:26:18;2.83;;;1.10;;
32748;SDS011;19119;52.474;13.710;2023-04-24T07:28:45;1.80;;;1.13;;
32748;SDS011;19119;52.474;13.710;2023-04-24T07:31:11;3.28;;;1.13;;
32748;SDS011;19119;52.474;13.710;2023-04-24T07:33:36;6.10;;;1.00;;
32748;SDS011;19119;52.474;13.710;2023-04-24T07:36:02;1.23;;;0.90;;
32748;SDS011;19119;52.474;13.710;2023-04-24T07:38:31;1.27;;;0.75;;
32748;SDS011;19119;52.474;13.710;2023-04-24T07:40:56;1.52;;;0.82;;
32748;SDS011;19119;52.474;13.710;2023-04-24T07:43:22;2.88;;;0.95;;
32748;SDS011;19119;52.474;13.710;2023-04-24T07:45:48;2.70;;;0.60;;
32748;SDS011;19119;52.474;13.710;2023-04-24T07:48:14;2.25;;;0.75;;
32748;SDS011;19119;52.474;13.710;2023-04-24T07:50:41;1.23;;;0.93;;
32748;SDS011;19119;52.474;13.710;2023-04-24T07:53:07;2.42;;;0.70;;
32748;SDS011;19119;52.474;13.710;2023-04-24T07:55:32;3.30;;;0.63;;
32748;SDS011;19119;52.474;13.710;2023-04-24T07:57:58;1.17;;;0.65;;
32748;SDS011;19119;52.474;13.710;2023-04-24T08:00:23;1.45;;;0.70;;
32748;SDS011;19119;52.474;13.710;2023-04-24T08:02:49;3.08;;;0.75;;
32748;SDS011;19119;52.474;13.710;2023-04-24T08:05:14;1.05;;;0.80;;
32748;SDS011;19119;52.474;13.710;2023-04-24T08:07:40;0.82;;;0.65;;
32748;SDS011;19119;52.474;13.710;2023-04-24T08:10:07;0.75;;;0.45;;
32748;SDS011;19119;52.474;13.710;2023-04-24T08:12:34;2.42;;;0.60;;
32748;SDS011;19119;52.474;13.710;2023-04-24T08:15:00;3.22;;;0.43;;
32748;SDS011;19119;52.474;13.710;2023-04-24T08:17:26;0.93;;;0.45;;
32748;SDS011;19119;52.474;13.710;2023-04-24T08:19:51;0.60;;;0.50;;
32748;SDS011;19119;52.474;13.710;2023-04-24T08:22:18;1.83;;;0.60;;
32748;SDS011;19119;52.474;13.710;2023-04-24T08:24:43;0.80;;;0.60;;
32748;SDS011;19119;52.474;13.710;2023-04-24T08:27:09;2.22;;;0.60;;
32748;SDS011;19119;52.474;13.710;2023-04-24T08:29:35;0.98;;;0.65;;
32748;SDS011;19119;52.474;13.710;2023-04-24T08:32:01;3.10;;;0.63;;
32748;SDS011;19119;52.474;13.710;2023-04-24T08:34:27;0.93;;;0.60;;
32748;SDS011;19119;52.474;13.710;2023-04-24T08:36:52;0.52;;;0.40;;
32748;SDS011;19119;52.474;13.710;2023-04-24T08:39:19;1.08;;;0.47;;
32748;SDS011;19119;52.474;13.710;2023-04-24T08:41:45;0.75;;;0.60;;
32748;SDS011;19119;52.474;13.710;2023-04-24T08:44:11;2.42;;;0.88;;
32748;SDS011;19119;52.474;13.710;2023-04-24T08:46:37;3.38;;;1.48;;
32748;SDS011;19119;52.474;13.710;2023-04-24T08:49:04;2.22;;;1.08;;
32748;SDS011;19119;52.474;13.710;2023-04-24T08:51:30;1.30;;;0.60;;
32748;SDS011;19119;52.474;13.710;2023-04-24T08:53:56;1.55;;;0.70;;
32748;SDS011;19119;52.474;13.710;2023-04-24T08:56:22;1.23;;;0.68;;
32748;SDS011;19119;52.474;13.710;2023-04-24T08:58:50;1.98;;;0.68;;
32748;SDS011;19119;52.474;13.710;2023-04-24T09:01:17;0.60;;;0.50;;
32748;SDS011;19119;52.474;13.710;2023-04-24T09:03:44;0.50;;;0.50;;
32748;SDS011;19119;52.474;13.710;2023-04-24T09:06:11;0.98;;;0.52;;
32748;SDS011;19119;52.474;13.710;2023-04-24T09:08:37;1.42;;;0.52;;
32748;SDS011;19119;52.474;13.710;2023-04-24T09:11:04;1.30;;;0.50;;
32748;SDS011;19119;52.474;13.710;2023-04-24T09:13:30;0.88;;;0.60;;
32748;SDS011;19119;52.474;13.710;2023-04-24T09:15:56;1.55;;;0.32;;
32748;SDS011;19119;52.474;13.710;2023-04-24T09:18:22;1.33;;;1.20;;
32748;SDS011;19119;52.474;13.710;2023-04-24T09:21:03;0.50;;;0.38;;
32748;SDS011;19119;52.474;13.710;2023-04-24T09:23:32;1.35;;;0.60;;
32748;SDS011;19119;52.474;13.710;2023-04-24T09:25:58;0.85;;;0.55;;
32748;SDS011;19119;52.474;13.710;2023-04-24T09:28:32;2.08;;;0.55;;
32748;SDS011;19119;52.474;13.710;2023-04-24T09:31:13;1.35;;;0.40;;
32748;SDS011;19119;52.474;13.710;2023-04-24T09:33:55;1.98;;;0.50;;
32748;SDS011;19119;52.474;13.710;2023-04-24T09:36:29;1.38;;;0.60;;
32748;SDS011;19119;52.474;13.710;2023-04-24T09:38:59;1.52;;;1.02;;
32748;SDS011;19119;52.474;13.710;2023-04-24T09:41:26;1.75;;;0.90;;
32748;SDS011;19119;52.474;13.710;2023-04-24T09:43:56;1.02;;;0.90;;
32748;SDS011;19119;52.474;13.710;2023-04-24T09:46:28;2.95;;;0.80;;
32748;SDS011;19119;52.474;13.710;2023-04-24T09:48:55;1.25;;;0.90;;
32748;SDS011;19119;52.474;13.710;2023-04-24T09:51:32;2.85;;;0.80;;
32748;SDS011;19119;52.474;13.710;2023-04-24T09:54:00;2.25;;;0.40;;
32748;SDS011;19119;52.474;13.710;2023-04-24T09:56:25;0.95;;;0.80;;
32748;SDS011;19119;52.474;13.710;2023-04-24T09:58:51;2.38;;;0.93;;
32748;SDS011;19119;52.474;13.710;2023-04-24T10:01:28;2.05;;;0.70;;
32748;SDS011;19119;52.474;13.710;2023-04-24T10:03:55;3.47;;;0.80;;
32748;SDS011;19119;52.474;13.710;2023-04-24T10:06:21;1.08;;;0.73;;
32748;SDS011;19119;52.474;13.710;2023-04-24T10:08:46;1.00;;;0.60;;
32748;SDS011;19119;52.474;13.710;2023-04-24T10:11:14;0.60;;;0.43;;
32748;SDS011;19119;52.474;13.710;2023-04-24T10:13:40;2.78;;;0.80;;
32748;SDS011;19119;52.474;13.710;2023-04-24T10:16:05;1.55;;;0.65;;
32748;SDS011;19119;52.474;13.710;2023-04-24T10:18:32;2.50;;;0.70;;
32748;SDS011;19119;52.474;13.710;2023-04-24T10:20:59;1.10;;;0.52;;
32748;SDS011;19119;52.474;13.710;2023-04-24T10:23:25;2.58;;;0.70;;
32748;SDS011;19119;52.474;13.710;2023-04-24T10:25:52;1.85;;;0.88;;
32748;SDS011;19119;52.474;13.710;2023-04-24T10:28:24;0.85;;;0.65;;
32748;SDS011;19119;52.474;13.710;2023-04-24T10:30:51;0.75;;;0.50;;
32748;SDS011;19119;52.474;13.710;2023-04-24T10:33:19;3.65;;;1.05;;
32748;SDS011;19119;52.474;13.710;2023-04-24T10:35:48;1.13;;;0.52;;
32748;SDS011;19119;52.474;13.710;2023-04-24T10:38:16;2.97;;;1.40;;
32748;SDS011;19119;52.474;13.710;2023-04-24T10:40:49;0.63;;;0.50;;
32748;SDS011;19119;52.474;13.710;2023-04-24T10:43:16;1.40;;;0.60;;
32748;SDS011;19119;52.474;13.710;2023-04-24T10:45:42;2.60;;;0.65;;
32748;SDS011;19119;52.474;13.710;2023-04-24T10:48:28;1.20;;;0.75;;
32748;SDS011;19119;52.474;13.710;2023-04-24T10:50:54;0.77;;;0.70;;
32748;SDS011;19119;52.474;13.710;2023-04-24T10:53:20;1.48;;;0.68;;
32748;SDS011;19119;52.474;13.710;2023-04-24T10:56:07;1.95;;;0.70;;
32748;SDS011;19119;52.474;13.710;2023-04-24T11:03:56;1.02;;;0.70;;
32748;SDS011;19119;52.474;13.710;2023-04-24T11:06:33;1.48;;;0.63;;
32748;SDS011;19119;52.474;13.710;2023-04-24T11:09:06;1.35;;;0.50;;
32748;SDS011;19119;52.474;13.710;2023-04-24T11:11:33;1.20;;;0.90;;
32748;SDS011;19119;52.474;13.710;2023-04-24T11:14:01;1.60;;;0.60;;
32748;SDS011;19119;52.474;13.710;2023-04-24T11:16:35;0.70;;;0.50;;
32748;SDS011;19119;52.474;13.710;2023-04-24T11:19:07;1.00;;;0.60;;
32748;SDS011;19119;52.474;13.710;2023-04-24T11:21:43;2.17;;;0.70;;
32748;SDS011;19119;52.474;13.710;2023-04-24T11:24:29;0.82;;;0.65;;
32748;SDS011;19119;52.474;13.710;2023-04-24T11:26:58;0.77;;;0.70;;
32748;SDS011;19119;52.474;13.710;2023-04-24T11:34:59;1.95;;;0.57;;
32748;SDS011;19119;52.474;13.710;2023-04-24T11:37:38;1.50;;;0.73;;
32748;SDS011;19119;52.474;13.710;2023-04-24T11:40:07;0.95;;;0.35;;
32748;SDS011;19119;52.474;13.710;2023-04-24T11:42:47;2.60;;;0.70;;
32748;SDS011;19119;52.474;13.710;2023-04-24T11:45:18;0.70;;;0.52;;
32748;SDS011;19119;52.474;13.710;2023-04-24T11:47:47;1.08;;;0.80;;
32748;SDS011;19119;52.474;13.710;2023-04-24T11:50:14;1.13;;;0.50;;
32748;SDS011;19119;52.474;13.710;2023-04-24T11:52:46;2.53;;;0.60;;
32748;SDS011;19119;52.474;13.710;2023-04-24T11:57:43;2.28;;;0.63;;
32748;SDS011;19119;52.474;13.710;2023-04-24T12:00:16;2.60;;;0.90;;
32748;SDS011;19119;52.474;13.710;2023-04-24T12:02:46;2.10;;;0.90;;
32748;SDS011;19119;52.474;13.710;2023-04-24T12:05:21;2.08;;;1.17;;
32748;SDS011;19119;52.474;13.710;2023-04-24T12:07:47;3.47;;;1.20;;
32748;SDS011;19119;52.474;13.710;2023-04-24T12:10:13;3.05;;;0.95;;
32748;SDS011;19119;52.474;13.710;2023-04-24T12:12:39;3.22;;;0.80;;
32748;SDS011;19119;52.474;13.710;2023-04-24T12:15:08;1.70;;;1.00;;
32748;SDS011;19119;52.474;13.710;2023-04-24T12:17:34;1.30;;;0.75;;
32748;SDS011;19119;52.474;13.710;2023-04-24T12:20:02;1.35;;;0.60;;
32748;SDS011;19119;52.474;13.710;2023-04-24T12:22:46;1.20;;;0.80;;
32748;SDS011;19119;52.474;13.710;2023-04-24T12:25:18;1.35;;;0.77;;
32748;SDS011;19119;52.474;13.710;2023-04-24T12:27:46;1.15;;;0.63;;
32748;SDS011;19119;52.474;13.710;2023-04-24T12:30:17;2.13;;;1.02;;
32748;SDS011;19119;52.474;13.710;2023-04-24T12:32:44;2.38;;;0.80;;
32748;SDS011;19119;52.474;13.710;2023-04-24T12:35:11;3.88;;;0.90;;
32748;SDS011;19119;52.474;13.710;2023-04-24T12:37:37;0.88;;;0.70;;
32748;SDS011;19119;52.474;13.710;2023-04-24T12:42:44;1.38;;;0.57;;
32748;SDS011;19119;52.474;13.710;2023-04-24T12:45:11;1.52;;;0.70;;
32748;SDS011;19119;52.474;13.710;2023-04-24T12:47:37;3.17;;;0.60;;
32748;SDS011;19119;52.474;13.710;2023-04-24T12:50:04;2.72;;;0.80;;
32748;SDS011;19119;52.474;13.710;2023-04-24T12:52:30;0.90;;;0.57;;
32748;SDS011;19119;52.474;13.710;2023-04-24T12:54:57;1.00;;;0.70;;
32748;SDS011;19119;52.474;13.710;2023-04-24T12:57:24;2.08;;;0.68;;
32748;SDS011;19119;52.474;13.710;2023-04-24T12:59:50;1.65;;;1.27;;
32748;SDS011;19119;52.474;13.710;2023-04-24T13:02:17;0.73;;;0.60;;
32748;SDS011;19119;52.474;13.710;2023-04-24T13:04:48;0.65;;;0.40;;
32748;SDS011;19119;52.474;13.710;2023-04-24T13:09:40;1.67;;;0.70;;
32748;SDS011;19119;52.474;13.710;2023-04-24T13:12:07;1.70;;;0.82;;
32748;SDS011;19119;52.474;13.710;2023-04-24T13:14:34;3.33;;;0.68;;
32748;SDS011;19119;52.474;13.710;2023-04-24T13:17:00;1.52;;;0.68;;
32748;SDS011;19119;52.474;13.710;2023-04-24T13:19:26;1.17;;;0.60;;
32748;SDS011;19119;52.474;13.710;2023-04-24T13:21:52;0.75;;;0.50;;
32748;SDS011;19119;52.474;13.710;2023-04-24T13:24:22;0.60;;;0.50;;
32748;SDS011;19119;52.474;13.710;2023-04-24T13:26:54;3.15;;;0.80;;
32748;SDS011;19119;52.474;13.710;2023-04-24T13:29:21;1.92;;;0.47;;
32748;SDS011;19119;52.474;13.710;2023-04-24T13:31:51;4.00;;;1.30;;
32748;SDS011;19119;52.474;13.710;2023-04-24T13:34:19;1.67;;;1.40;;
32748;SDS011;19119;52.474;13.710;2023-04-24T13:36:44;2.60;;;0.80;;
32748;SDS011;19119;52.474;13.710;2023-04-24T13:39:10;0.77;;;0.45;;
32748;SDS011;19119;52.474;13.710;2023-04-24T13:41:36;1.70;;;0.70;;
32748;SDS011;19119;52.474;13.710;2023-04-24T13:44:02;13.80;;;8.00;;
32748;SDS011;19119;52.474;13.710;2023-04-24T13:46:28;3.38;;;1.80;;
32748;SDS011;19119;52.474;13.710;2023-04-24T13:48:54;0.70;;;0.60;;
32748;SDS011;19119;52.474;13.710;2023-04-24T13:51:19;2.85;;;0.70;;
32748;SDS011;19119;52.474;13.710;2023-04-24T13:53:46;4.68;;;1.25;;
32748;SDS011;19119;52.474;13.710;2023-04-24T13:56:13;1.02;;;0.68;;
32748;SDS011;19119;52.474;13.710;2023-04-24T13:58:39;2.28;;;0.60;;
32748;SDS011;19119;52.474;13.710;2023-04-24T14:01:04;2.40;;;1.30;;
32748;SDS011;19119;52.474;13.710;2023-04-24T14:03:30;3.50;;;1.15;;
32748;SDS011;19119;52.474;13.710;2023-04-24T14:05:56;4.30;;;2.03;;
32748;SDS011;19119;52.474;13.710;2023-04-24T14:08:21;5.57;;;1.55;;
32748;SDS011;19119;52.474;13.710;2023-04-24T14:10:47;13.27;;;4.50;;
32748;SDS011;19119;52.474;13.710;2023-04-24T14:13:12;5.90;;;2.03;;
32748;SDS011;19119;52.474;13.710;2023-04-24T14:15:38;6.15;;;1.30;;
32748;SDS011;19119;52.474;13.710;2023-04-24T14:18:06;1.05;;;0.63;;
32748;SDS011;19119;52.474;13.710;2023-04-24T14:20:33;1.67;;;0.60;;
32748;SDS011;19119;52.474;13.710;2023-04-24T14:22:58;1.90;;;0.60;;
32748;SDS011;19119;52.474;13.710;2023-04-24T14:25:24;3.15;;;0.60;;
32748;SDS011;19119;52.474;13.710;2023-04-24T14:27:50;2.30;;;0.38;;
32748;SDS011;19119;52.474;13.710;2023-04-24T14:30:16;1.52;;;0.75;;
32748;SDS011;19119;52.474;13.710;2023-04-24T14:32:43;1.65;;;0.70;;
32748;SDS011;19119;52.474;13.710;2023-04-24T14:35:08;0.90;;;0.60;;
32748;SDS011;19119;52.474;13.710;2023-04-24T14:37:34;0.93;;;0.60;;
32748;SDS011;19119;52.474;13.710;2023-04-24T14:40:00;1.70;;;0.60;;
32748;SDS011;19119;52.474;13.710;2023-04-24T14:42:31;3.20;;;1.45;;
32748;SDS011;19119;52.474;13.710;2023-04-24T14:44:58;4.28;;;2.03;;
32748;SDS011;19119;52.474;13.710;2023-04-24T14:47:23;1.13;;;0.95;;
32748;SDS011;19119;52.474;13.710;2023-04-24T14:49:49;1.08;;;0.70;;